sensor_id;sensor_type;location;lat;lon;timestamp;P1;durP1;ratioP1;P2;durP2;ratioP2
72301;SDS011;60235;52.234;5.186;2022-09-29T00:02:16;9.70;;;3.55;;
72301;SDS011;60235;52.234;5.186;2022-09-29T00:04:42;9.55;;;4.20;;
72301;SDS011;60235;52.234;5.186;2022-09-29T00:07:08;8.32;;;3.60;;
72301;SDS011;60235;52.234;5.186;2022-09-29T00:09:34;9.15;;;4.03;;
72301;SDS011;60235;52.234;5.186;2022-09-29T00:12:00;9.98;;;3.90;;
72301;SDS011;60235;52.234;5.186;2022-09-29T00:14:26;8.65;;;3.40;;
72301;SDS011;60235;52.234;5.186;2022-09-29T00:16:52;9.00;;;3.88;;
72301;SDS011;60235;52.234;5.186;2022-09-29T00:19:18;9.52;;;4.35;;
72301;SDS011;60235;52.234;5.186;2022-09-29T00:21:44;9.55;;;3.92;;
72301;SDS011;60235;52.234;5.186;2022-09-29T00:24:10;7.78;;;3.22;;
72301;SDS011;60235;52.234;5.186;2022-09-29T00:26:36;8.68;;;3.40;;
72301;SDS011;60235;52.234;5.186;2022-09-29T00:29:03;7.95;;;3.53;;
72301;SDS011;60235;52.234;5.186;2022-09-29T00:31:30;7.63;;;3.28;;
72301;SDS011;60235;52.234;5.186;2022-09-29T00:33:57;7.03;;;3.20;;
72301;SDS011;60235;52.234;5.186;2022-09-29T00:36:23;10.02;;;3.83;;
72301;SDS011;60235;52.234;5.186;2022-09-29T00:38:52;8.95;;;3.28;;
72301;SDS011;60235;52.234;5.186;2022-09-29T00:41:19;8.13;;;3.40;;
72301;SDS011;60235;52.234;5.186;2022-09-29T00:46:18;9.20;;;3.90;;
72301;SDS011;60235;52.234;5.186;2022-09-29T00:48:45;9.45;;;4.10;;
72301;SDS011;60235;52.234;5.186;2022-09-29T00:51:12;8.38;;;3.78;;
72301;SDS011;60235;52.234;5.186;2022-09-29T00:53:38;10.50;;;4.57;;
72301;SDS011;60235;52.234;5.186;2022-09-29T00:56:06;8.93;;;3.85;;
72301;SDS011;60235;52.234;5.186;2022-09-29T01:00:59;8.07;;;3.67;;
72301;SDS011;60235;52.234;5.186;2022-09-29T01:03:30;10.75;;;4.40;;
72301;SDS011;60235;52.234;5.186;2022-09-29T01:05:58;11.40;;;3.70;;
72301;SDS011;60235;52.234;5.186;2022-09-29T01:08:27;9.25;;;3.90;;
72301;SDS011;60235;52.234;5.186;2022-09-29T01:10:55;8.70;;;3.70;;
72301;SDS011;60235;52.234;5.186;2022-09-29T01:13:21;9.75;;;3.80;;
72301;SDS011;60235;52.234;5.186;2022-09-29T01:15:48;9.13;;;4.10;;
72301;SDS011;60235;52.234;5.186;2022-09-29T01:18:14;9.55;;;3.55;;
72301;SDS011;60235;52.234;5.186;2022-09-29T01:20:42;10.45;;;4.15;;
72301;SDS011;60235;52.234;5.186;2022-09-29T01:36:11;10.00;;;4.47;;
72301;SDS011;60235;52.234;5.186;2022-09-29T01:41:32;12.27;;;4.93;;
72301;SDS011;60235;52.234;5.186;2022-09-29T01:44:05;9.85;;;4.78;;
72301;SDS011;60235;52.234;5.186;2022-09-29T01:46:54;13.18;;;4.65;;
72301;SDS011;60235;52.234;5.186;2022-09-29T01:49:21;10.80;;;4.43;;
72301;SDS011;60235;52.234;5.186;2022-09-29T01:51:56;11.65;;;4.25;;
72301;SDS011;60235;52.234;5.186;2022-09-29T01:54:26;10.52;;;4.68;;
72301;SDS011;60235;52.234;5.186;2022-09-29T01:57:05;10.00;;;4.30;;
72301;SDS011;60235;52.234;5.186;2022-09-29T01:59:51;10.60;;;4.80;;
72301;SDS011;60235;52.234;5.186;2022-09-29T02:05:16;11.05;;;5.05;;
72301;SDS011;60235;52.234;5.186;2022-09-29T02:07:44;12.40;;;4.95;;
72301;SDS011;60235;52.234;5.186;2022-09-29T02:10:13;11.88;;;5.15;;
72301;SDS011;60235;52.234;5.186;2022-09-29T02:15:06;8.60;;;4.13;;
72301;SDS011;60235;52.234;5.186;2022-09-29T02:17:35;12.77;;;5.22;;
72301;SDS011;60235;52.234;5.186;2022-09-29T02:20:02;11.55;;;4.95;;
72301;SDS011;60235;52.234;5.186;2022-09-29T02:22:28;13.15;;;5.22;;
72301;SDS011;60235;52.234;5.186;2022-09-29T02:24:54;11.10;;;5.30;;
72301;SDS011;60235;52.234;5.186;2022-09-29T02:27:23;10.82;;;5.03;;
72301;SDS011;60235;52.234;5.186;2022-09-29T02:29:49;13.65;;;5.40;;
72301;SDS011;60235;52.234;5.186;2022-09-29T02:32:15;12.98;;;5.28;;
72301;SDS011;60235;52.234;5.186;2022-09-29T02:34:42;13.07;;;5.78;;
72301;SDS011;60235;52.234;5.186;2022-09-29T02:37:16;10.13;;;4.38;;
72301;SDS011;60235;52.234;5.186;2022-09-29T02:45:22;10.90;;;4.45;;
72301;SDS011;60235;52.234;5.186;2022-09-29T02:51:05;12.48;;;4.70;;
72301;SDS011;60235;52.234;5.186;2022-09-29T02:58:38;11.65;;;4.65;;
72301;SDS011;60235;52.234;5.186;2022-09-29T03:01:07;12.30;;;4.95;;
72301;SDS011;60235;52.234;5.186;2022-09-29T03:03:33;11.00;;;4.45;;
72301;SDS011;60235;52.234;5.186;2022-09-29T03:05:59;11.45;;;4.40;;
72301;SDS011;60235;52.234;5.186;2022-09-29T03:08:25;10.93;;;4.75;;
72301;SDS011;60235;52.234;5.186;2022-09-29T03:10:51;9.57;;;5.03;;
72301;SDS011;60235;52.234;5.186;2022-09-29T03:13:17;9.45;;;4.25;;
72301;SDS011;60235;52.234;5.186;2022-09-29T03:15:43;9.30;;;3.95;;
72301;SDS011;60235;52.234;5.186;2022-09-29T03:18:09;11.05;;;4.38;;
72301;SDS011;60235;52.234;5.186;2022-09-29T03:20:35;9.40;;;4.65;;
72301;SDS011;60235;52.234;5.186;2022-09-29T03:23:01;11.20;;;4.90;;
72301;SDS011;60235;52.234;5.186;2022-09-29T03:25:27;11.65;;;4.28;;
72301;SDS011;60235;52.234;5.186;2022-09-29T03:27:53;10.20;;;4.47;;
72301;SDS011;60235;52.234;5.186;2022-09-29T03:30:19;10.73;;;4.57;;
72301;SDS011;60235;52.234;5.186;2022-09-29T03:32:47;10.05;;;4.35;;
72301;SDS011;60235;52.234;5.186;2022-09-29T03:35:13;10.32;;;4.80;;
72301;SDS011;60235;52.234;5.186;2022-09-29T03:37:39;10.63;;;4.53;;
72301;SDS011;60235;52.234;5.186;2022-09-29T03:40:05;10.48;;;4.35;;
72301;SDS011;60235;52.234;5.186;2022-09-29T03:42:31;10.88;;;4.32;;
72301;SDS011;60235;52.234;5.186;2022-09-29T03:44:57;10.38;;;4.70;;
72301;SDS011;60235;52.234;5.186;2022-09-29T03:47:23;13.18;;;4.78;;
72301;SDS011;60235;52.234;5.186;2022-09-29T03:49:49;10.63;;;4.57;;
72301;SDS011;60235;52.234;5.186;2022-09-29T03:52:15;9.80;;;4.68;;
72301;SDS011;60235;52.234;5.186;2022-09-29T03:54:41;7.93;;;4.00;;
72301;SDS011;60235;52.234;5.186;2022-09-29T03:57:07;9.75;;;4.55;;
72301;SDS011;60235;52.234;5.186;2022-09-29T03:59:34;10.25;;;4.78;;
72301;SDS011;60235;52.234;5.186;2022-09-29T04:01:59;10.23;;;4.22;;
72301;SDS011;60235;52.234;5.186;2022-09-29T04:04:26;10.05;;;4.72;;
72301;SDS011;60235;52.234;5.186;2022-09-29T04:06:52;10.50;;;4.78;;
72301;SDS011;60235;52.234;5.186;2022-09-29T04:09:18;10.02;;;4.63;;
72301;SDS011;60235;52.234;5.186;2022-09-29T04:11:44;9.32;;;4.70;;
72301;SDS011;60235;52.234;5.186;2022-09-29T04:14:10;9.90;;;4.45;;
72301;SDS011;60235;52.234;5.186;2022-09-29T04:16:36;13.13;;;4.53;;
72301;SDS011;60235;52.234;5.186;2022-09-29T04:19:02;9.85;;;4.60;;
72301;SDS011;60235;52.234;5.186;2022-09-29T04:21:28;8.88;;;4.18;;
72301;SDS011;60235;52.234;5.186;2022-09-29T04:23:54;9.15;;;3.80;;
72301;SDS011;60235;52.234;5.186;2022-09-29T04:26:20;9.95;;;4.28;;
72301;SDS011;60235;52.234;5.186;2022-09-29T04:28:46;10.85;;;4.28;;
72301;SDS011;60235;52.234;5.186;2022-09-29T04:31:12;9.38;;;4.28;;
72301;SDS011;60235;52.234;5.186;2022-09-29T04:33:38;10.32;;;4.03;;
72301;SDS011;60235;52.234;5.186;2022-09-29T04:36:05;8.80;;;4.50;;
72301;SDS011;60235;52.234;5.186;2022-09-29T04:38:31;9.18;;;4.13;;
72301;SDS011;60235;52.234;5.186;2022-09-29T04:40:57;10.07;;;4.72;;
72301;SDS011;60235;52.234;5.186;2022-09-29T04:43:24;10.15;;;4.60;;
72301;SDS011;60235;52.234;5.186;2022-09-29T04:45:50;10.70;;;4.70;;
72301;SDS011;60235;52.234;5.186;2022-09-29T04:48:15;11.98;;;5.13;;
72301;SDS011;60235;52.234;5.186;2022-09-29T04:50:42;11.73;;;4.53;;
72301;SDS011;60235;52.234;5.186;2022-09-29T04:53:08;10.48;;;4.63;;
72301;SDS011;60235;52.234;5.186;2022-09-29T04:55:36;10.25;;;4.82;;
72301;SDS011;60235;52.234;5.186;2022-09-29T04:58:02;10.73;;;4.90;;
72301;SDS011;60235;52.234;5.186;2022-09-29T05:00:28;9.80;;;4.38;;
72301;SDS011;60235;52.234;5.186;2022-09-29T05:02:56;9.32;;;4.50;;
72301;SDS011;60235;52.234;5.186;2022-09-29T05:05:22;10.77;;;4.85;;
72301;SDS011;60235;52.234;5.186;2022-09-29T05:07:48;11.60;;;5.13;;
72301;SDS011;60235;52.234;5.186;2022-09-29T05:10:14;10.13;;;4.97;;
72301;SDS011;60235;52.234;5.186;2022-09-29T05:12:40;11.60;;;4.90;;
72301;SDS011;60235;52.234;5.186;2022-09-29T05:15:06;10.82;;;4.05;;
72301;SDS011;60235;52.234;5.186;2022-09-29T05:17:32;15.07;;;5.05;;
72301;SDS011;60235;52.234;5.186;2022-09-29T05:19:58;12.15;;;5.18;;
72301;SDS011;60235;52.234;5.186;2022-09-29T05:22:24;11.80;;;4.25;;
72301;SDS011;60235;52.234;5.186;2022-09-29T05:24:50;13.20;;;4.50;;
72301;SDS011;60235;52.234;5.186;2022-09-29T05:27:16;10.38;;;4.30;;
72301;SDS011;60235;52.234;5.186;2022-09-29T05:29:42;11.63;;;4.93;;
72301;SDS011;60235;52.234;5.186;2022-09-29T05:32:08;12.30;;;4.78;;
72301;SDS011;60235;52.234;5.186;2022-09-29T05:34:34;10.82;;;5.03;;
72301;SDS011;60235;52.234;5.186;2022-09-29T05:37:00;15.00;;;5.28;;
72301;SDS011;60235;52.234;5.186;2022-09-29T05:39:26;14.70;;;5.55;;
72301;SDS011;60235;52.234;5.186;2022-09-29T05:41:55;13.20;;;5.40;;
72301;SDS011;60235;52.234;5.186;2022-09-29T05:44:21;11.02;;;5.32;;
72301;SDS011;60235;52.234;5.186;2022-09-29T05:46:47;12.73;;;5.13;;
72301;SDS011;60235;52.234;5.186;2022-09-29T05:49:13;12.57;;;5.88;;
72301;SDS011;60235;52.234;5.186;2022-09-29T05:51:39;12.95;;;5.90;;
72301;SDS011;60235;52.234;5.186;2022-09-29T05:54:05;14.77;;;5.68;;
72301;SDS011;60235;52.234;5.186;2022-09-29T05:56:31;11.88;;;5.25;;
72301;SDS011;60235;52.234;5.186;2022-09-29T05:58:57;11.40;;;5.03;;
72301;SDS011;60235;52.234;5.186;2022-09-29T06:01:25;10.30;;;4.85;;
72301;SDS011;60235;52.234;5.186;2022-09-29T06:03:52;12.48;;;5.30;;
72301;SDS011;60235;52.234;5.186;2022-09-29T06:06:19;11.88;;;5.63;;
72301;SDS011;60235;52.234;5.186;2022-09-29T06:08:46;11.85;;;5.57;;
72301;SDS011;60235;52.234;5.186;2022-09-29T06:13:48;11.65;;;5.28;;
72301;SDS011;60235;52.234;5.186;2022-09-29T06:16:15;10.32;;;5.20;;
72301;SDS011;60235;52.234;5.186;2022-09-29T06:18:41;12.15;;;5.60;;
72301;SDS011;60235;52.234;5.186;2022-09-29T06:21:08;11.73;;;5.78;;
72301;SDS011;60235;52.234;5.186;2022-09-29T06:23:35;13.43;;;5.43;;
72301;SDS011;60235;52.234;5.186;2022-09-29T06:26:02;12.25;;;5.78;;
72301;SDS011;60235;52.234;5.186;2022-09-29T06:28:29;16.80;;;6.43;;
72301;SDS011;60235;52.234;5.186;2022-09-29T06:31:02;14.73;;;6.30;;
72301;SDS011;60235;52.234;5.186;2022-09-29T06:33:29;15.32;;;7.43;;
72301;SDS011;60235;52.234;5.186;2022-09-29T06:35:55;14.35;;;6.75;;
72301;SDS011;60235;52.234;5.186;2022-09-29T06:38:41;13.43;;;6.80;;
72301;SDS011;60235;52.234;5.186;2022-09-29T06:41:07;15.32;;;7.63;;
72301;SDS011;60235;52.234;5.186;2022-09-29T06:43:33;13.88;;;7.13;;
72301;SDS011;60235;52.234;5.186;2022-09-29T06:46:00;18.90;;;9.10;;
72301;SDS011;60235;52.234;5.186;2022-09-29T06:48:26;16.92;;;8.60;;
72301;SDS011;60235;52.234;5.186;2022-09-29T06:50:53;14.75;;;8.00;;
72301;SDS011;60235;52.234;5.186;2022-09-29T06:53:19;19.58;;;9.50;;
72301;SDS011;60235;52.234;5.186;2022-09-29T06:55:52;18.70;;;8.27;;
72301;SDS011;60235;52.234;5.186;2022-09-29T06:58:18;16.92;;;8.13;;
72301;SDS011;60235;52.234;5.186;2022-09-29T07:00:44;18.88;;;8.25;;
72301;SDS011;60235;52.234;5.186;2022-09-29T07:03:10;18.77;;;9.68;;
72301;SDS011;60235;52.234;5.186;2022-09-29T07:05:36;17.55;;;9.40;;
72301;SDS011;60235;52.234;5.186;2022-09-29T07:08:02;19.05;;;9.40;;
72301;SDS011;60235;52.234;5.186;2022-09-29T07:10:28;17.92;;;9.00;;
72301;SDS011;60235;52.234;5.186;2022-09-29T07:12:54;17.15;;;9.07;;
72301;SDS011;60235;52.234;5.186;2022-09-29T07:15:20;19.80;;;9.60;;
72301;SDS011;60235;52.234;5.186;2022-09-29T07:17:50;19.73;;;9.20;;
72301;SDS011;60235;52.234;5.186;2022-09-29T07:20:16;19.35;;;10.25;;
72301;SDS011;60235;52.234;5.186;2022-09-29T07:22:45;19.55;;;10.02;;
72301;SDS011;60235;52.234;5.186;2022-09-29T07:25:11;17.52;;;9.27;;
72301;SDS011;60235;52.234;5.186;2022-09-29T07:27:37;21.42;;;10.50;;
72301;SDS011;60235;52.234;5.186;2022-09-29T07:30:03;21.02;;;10.68;;
72301;SDS011;60235;52.234;5.186;2022-09-29T07:32:29;19.58;;;10.38;;
72301;SDS011;60235;52.234;5.186;2022-09-29T07:34:56;23.63;;;11.35;;
72301;SDS011;60235;52.234;5.186;2022-09-29T07:37:23;20.10;;;11.60;;
72301;SDS011;60235;52.234;5.186;2022-09-29T07:39:49;20.65;;;11.30;;
72301;SDS011;60235;52.234;5.186;2022-09-29T07:42:17;19.73;;;10.18;;
72301;SDS011;60235;52.234;5.186;2022-09-29T07:44:43;23.13;;;12.10;;
72301;SDS011;60235;52.234;5.186;2022-09-29T07:47:09;24.27;;;11.25;;
72301;SDS011;60235;52.234;5.186;2022-09-29T07:49:35;20.92;;;10.80;;
72301;SDS011;60235;52.234;5.186;2022-09-29T07:52:02;18.10;;;9.90;;
72301;SDS011;60235;52.234;5.186;2022-09-29T07:54:28;23.63;;;10.95;;
72301;SDS011;60235;52.234;5.186;2022-09-29T07:56:55;22.73;;;11.73;;
72301;SDS011;60235;52.234;5.186;2022-09-29T07:59:21;21.42;;;10.85;;
72301;SDS011;60235;52.234;5.186;2022-09-29T08:01:47;21.02;;;11.07;;
72301;SDS011;60235;52.234;5.186;2022-09-29T08:04:13;21.02;;;11.77;;
72301;SDS011;60235;52.234;5.186;2022-09-29T08:06:39;22.98;;;12.32;;
72301;SDS011;60235;52.234;5.186;2022-09-29T08:09:06;21.20;;;11.43;;
72301;SDS011;60235;52.234;5.186;2022-09-29T08:11:32;19.40;;;10.93;;
72301;SDS011;60235;52.234;5.186;2022-09-29T08:16:27;21.20;;;11.55;;
72301;SDS011;60235;52.234;5.186;2022-09-29T08:18:53;21.42;;;10.77;;
72301;SDS011;60235;52.234;5.186;2022-09-29T08:21:19;19.60;;;10.45;;
72301;SDS011;60235;52.234;5.186;2022-09-29T08:23:45;20.27;;;10.75;;
72301;SDS011;60235;52.234;5.186;2022-09-29T08:26:12;18.42;;;10.63;;
72301;SDS011;60235;52.234;5.186;2022-09-29T08:28:38;19.08;;;9.48;;
72301;SDS011;60235;52.234;5.186;2022-09-29T08:31:06;18.85;;;9.80;;
72301;SDS011;60235;52.234;5.186;2022-09-29T08:33:32;22.02;;;10.32;;
72301;SDS011;60235;52.234;5.186;2022-09-29T08:35:59;18.88;;;9.55;;
72301;SDS011;60235;52.234;5.186;2022-09-29T08:38:25;15.80;;;9.02;;
72301;SDS011;60235;52.234;5.186;2022-09-29T08:40:53;18.67;;;9.75;;
72301;SDS011;60235;52.234;5.186;2022-09-29T08:43:21;17.20;;;9.27;;
72301;SDS011;60235;52.234;5.186;2022-09-29T08:46:10;18.80;;;10.07;;
72301;SDS011;60235;52.234;5.186;2022-09-29T08:48:41;19.85;;;10.23;;
72301;SDS011;60235;52.234;5.186;2022-09-29T08:51:14;19.10;;;10.68;;
72301;SDS011;60235;52.234;5.186;2022-09-29T08:53:46;17.77;;;9.98;;
72301;SDS011;60235;52.234;5.186;2022-09-29T08:56:14;18.35;;;9.88;;
72301;SDS011;60235;52.234;5.186;2022-09-29T08:58:41;19.52;;;9.60;;
72301;SDS011;60235;52.234;5.186;2022-09-29T09:19:29;16.33;;;8.70;;
72301;SDS011;60235;52.234;5.186;2022-09-29T09:24:58;15.10;;;8.63;;
72301;SDS011;60235;52.234;5.186;2022-09-29T09:27:25;16.25;;;9.13;;
72301;SDS011;60235;52.234;5.186;2022-09-29T09:30:02;17.25;;;8.88;;
72301;SDS011;60235;52.234;5.186;2022-09-29T09:32:29;17.10;;;6.85;;
72301;SDS011;60235;52.234;5.186;2022-09-29T09:35:00;14.10;;;7.68;;
72301;SDS011;60235;52.234;5.186;2022-09-29T09:37:33;15.70;;;8.73;;
72301;SDS011;60235;52.234;5.186;2022-09-29T09:42:37;13.73;;;7.60;;
72301;SDS011;60235;52.234;5.186;2022-09-29T09:47:30;12.00;;;6.90;;
72301;SDS011;60235;52.234;5.186;2022-09-29T09:49:59;11.63;;;6.20;;
72301;SDS011;60235;52.234;5.186;2022-09-29T09:52:28;15.57;;;7.53;;
72301;SDS011;60235;52.234;5.186;2022-09-29T09:54:57;13.88;;;7.03;;
72301;SDS011;60235;52.234;5.186;2022-09-29T10:02:29;18.15;;;8.32;;
72301;SDS011;60235;52.234;5.186;2022-09-29T10:04:55;12.55;;;5.82;;
72301;SDS011;60235;52.234;5.186;2022-09-29T10:07:22;9.45;;;4.10;;
72301;SDS011;60235;52.234;5.186;2022-09-29T10:09:49;11.50;;;5.38;;
72301;SDS011;60235;52.234;5.186;2022-09-29T10:12:16;13.52;;;6.13;;
72301;SDS011;60235;52.234;5.186;2022-09-29T10:14:53;10.27;;;5.20;;
72301;SDS011;60235;52.234;5.186;2022-09-29T10:17:22;8.35;;;4.07;;
72301;SDS011;60235;52.234;5.186;2022-09-29T10:20:00;11.48;;;5.65;;
72301;SDS011;60235;52.234;5.186;2022-09-29T10:22:28;9.57;;;4.30;;
72301;SDS011;60235;52.234;5.186;2022-09-29T10:27:39;8.02;;;2.70;;
72301;SDS011;60235;52.234;5.186;2022-09-29T10:30:15;6.30;;;2.30;;
72301;SDS011;60235;52.234;5.186;2022-09-29T10:32:41;9.05;;;3.13;;
72301;SDS011;60235;52.234;5.186;2022-09-29T10:35:21;6.95;;;3.22;;
72301;SDS011;60235;52.234;5.186;2022-09-29T10:37:51;8.48;;;3.08;;
72301;SDS011;60235;52.234;5.186;2022-09-29T10:40:24;8.35;;;2.53;;
72301;SDS011;60235;52.234;5.186;2022-09-29T10:42:50;6.40;;;2.10;;
72301;SDS011;60235;52.234;5.186;2022-09-29T10:47:47;6.88;;;2.50;;
72301;SDS011;60235;52.234;5.186;2022-09-29T10:50:17;5.30;;;2.00;;
72301;SDS011;60235;52.234;5.186;2022-09-29T10:52:53;4.32;;;1.15;;
72301;SDS011;60235;52.234;5.186;2022-09-29T10:55:21;5.35;;;1.88;;
72301;SDS011;60235;52.234;5.186;2022-09-29T10:57:47;7.50;;;1.90;;
72301;SDS011;60235;52.234;5.186;2022-09-29T11:03:18;4.32;;;1.35;;
72301;SDS011;60235;52.234;5.186;2022-09-29T11:05:55;7.45;;;1.45;;
72301;SDS011;60235;52.234;5.186;2022-09-29T11:08:23;4.93;;;1.58;;
72301;SDS011;60235;52.234;5.186;2022-09-29T11:11:02;4.55;;;1.10;;
72301;SDS011;60235;52.234;5.186;2022-09-29T11:13:32;1.63;;;0.52;;
72301;SDS011;60235;52.234;5.186;2022-09-29T11:16:02;3.42;;;1.00;;
72301;SDS011;60235;52.234;5.186;2022-09-29T11:18:35;4.05;;;1.35;;
72301;SDS011;60235;52.234;5.186;2022-09-29T11:23:41;2.45;;;0.80;;
72301;SDS011;60235;52.234;5.186;2022-09-29T11:26:13;2.22;;;0.60;;
72301;SDS011;60235;52.234;5.186;2022-09-29T11:28:48;2.50;;;0.60;;
72301;SDS011;60235;52.234;5.186;2022-09-29T11:33:55;3.97;;;1.00;;
72301;SDS011;60235;52.234;5.186;2022-09-29T11:36:43;4.70;;;1.60;;
72301;SDS011;60235;52.234;5.186;2022-09-29T11:39:33;5.18;;;1.40;;
72301;SDS011;60235;52.234;5.186;2022-09-29T11:44:39;5.50;;;1.50;;
72301;SDS011;60235;52.234;5.186;2022-09-29T11:47:18;6.15;;;1.52;;
72301;SDS011;60235;52.234;5.186;2022-09-29T11:52:28;7.30;;;1.33;;
72301;SDS011;60235;52.234;5.186;2022-09-29T11:55:06;3.63;;;1.05;;
72301;SDS011;60235;52.234;5.186;2022-09-29T11:57:49;5.57;;;1.13;;
72301;SDS011;60235;52.234;5.186;2022-09-29T12:00:20;3.55;;;1.20;;
72301;SDS011;60235;52.234;5.186;2022-09-29T12:08:16;3.70;;;1.23;;
72301;SDS011;60235;52.234;5.186;2022-09-29T12:21:10;5.53;;;1.42;;
72301;SDS011;60235;52.234;5.186;2022-09-29T12:23:37;5.00;;;1.48;;
72301;SDS011;60235;52.234;5.186;2022-09-29T12:26:06;5.55;;;1.58;;
72301;SDS011;60235;52.234;5.186;2022-09-29T12:28:44;3.85;;;1.15;;
72301;SDS011;60235;52.234;5.186;2022-09-29T12:31:19;5.47;;;1.75;;
72301;SDS011;60235;52.234;5.186;2022-09-29T12:33:49;6.65;;;1.40;;
72301;SDS011;60235;52.234;5.186;2022-09-29T12:36:19;4.45;;;1.33;;
72301;SDS011;60235;52.234;5.186;2022-09-29T12:42:00;4.78;;;1.23;;
72301;SDS011;60235;52.234;5.186;2022-09-29T12:44:30;4.30;;;1.00;;
72301;SDS011;60235;52.234;5.186;2022-09-29T12:47:03;5.38;;;1.30;;
72301;SDS011;60235;52.234;5.186;2022-09-29T12:49:36;5.22;;;1.17;;
72301;SDS011;60235;52.234;5.186;2022-09-29T12:52:08;5.50;;;1.40;;
72301;SDS011;60235;52.234;5.186;2022-09-29T12:54:36;6.20;;;1.45;;
72301;SDS011;60235;52.234;5.186;2022-09-29T12:57:07;5.63;;;1.30;;
72301;SDS011;60235;52.234;5.186;2022-09-29T12:59:39;5.15;;;1.20;;
72301;SDS011;60235;52.234;5.186;2022-09-29T13:18:45;4.03;;;1.10;;
72301;SDS011;60235;52.234;5.186;2022-09-29T13:21:24;6.00;;;1.40;;
72301;SDS011;60235;52.234;5.186;2022-09-29T13:23:58;4.50;;;1.25;;
72301;SDS011;60235;52.234;5.186;2022-09-29T13:28:55;5.53;;;1.55;;
72301;SDS011;60235;52.234;5.186;2022-09-29T13:31:24;5.18;;;1.45;;
72301;SDS011;60235;52.234;5.186;2022-09-29T13:33:52;3.33;;;1.40;;
72301;SDS011;60235;52.234;5.186;2022-09-29T13:36:23;6.95;;;1.30;;
72301;SDS011;60235;52.234;5.186;2022-09-29T13:38:57;5.82;;;1.40;;
72301;SDS011;60235;52.234;5.186;2022-09-29T13:56:59;4.53;;;1.30;;
72301;SDS011;60235;52.234;5.186;2022-09-29T13:59:25;7.20;;;1.27;;
72301;SDS011;60235;52.234;5.186;2022-09-29T14:01:56;9.00;;;1.40;;
72301;SDS011;60235;52.234;5.186;2022-09-29T14:07:40;7.65;;;1.17;;
72301;SDS011;60235;52.234;5.186;2022-09-29T14:10:22;10.45;;;1.65;;
72301;SDS011;60235;52.234;5.186;2022-09-29T14:12:56;4.40;;;1.40;;
72301;SDS011;60235;52.234;5.186;2022-09-29T14:17:54;3.25;;;0.93;;
72301;SDS011;60235;52.234;5.186;2022-09-29T14:20:27;4.13;;;0.90;;
72301;SDS011;60235;52.234;5.186;2022-09-29T14:22:56;3.22;;;0.90;;
72301;SDS011;60235;52.234;5.186;2022-09-29T14:25:26;3.53;;;1.05;;
72301;SDS011;60235;52.234;5.186;2022-09-29T14:32:54;3.35;;;0.80;;
72301;SDS011;60235;52.234;5.186;2022-09-29T14:35:22;5.07;;;1.20;;
72301;SDS011;60235;52.234;5.186;2022-09-29T14:40:31;5.10;;;1.33;;
72301;SDS011;60235;52.234;5.186;2022-09-29T14:43:04;4.05;;;1.17;;
72301;SDS011;60235;52.234;5.186;2022-09-29T14:45:36;5.07;;;1.00;;
72301;SDS011;60235;52.234;5.186;2022-09-29T14:48:30;5.25;;;1.10;;
72301;SDS011;60235;52.234;5.186;2022-09-29T14:51:21;11.05;;;1.40;;
72301;SDS011;60235;52.234;5.186;2022-09-29T14:54:12;20.88;;;2.30;;
72301;SDS011;60235;52.234;5.186;2022-09-29T14:56:49;3.05;;;1.00;;
72301;SDS011;60235;52.234;5.186;2022-09-29T15:02:02;3.85;;;0.93;;
72301;SDS011;60235;52.234;5.186;2022-09-29T15:04:35;4.50;;;1.00;;
72301;SDS011;60235;52.234;5.186;2022-09-29T15:07:02;4.18;;;0.70;;
72301;SDS011;60235;52.234;5.186;2022-09-29T15:09:35;3.40;;;0.98;;
72301;SDS011;60235;52.234;5.186;2022-09-29T15:12:01;2.15;;;0.80;;
72301;SDS011;60235;52.234;5.186;2022-09-29T15:14:29;7.30;;;1.58;;
72301;SDS011;60235;52.234;5.186;2022-09-29T15:17:04;3.35;;;0.95;;
72301;SDS011;60235;52.234;5.186;2022-09-29T15:27:26;3.70;;;1.10;;
72301;SDS011;60235;52.234;5.186;2022-09-29T15:29:55;5.57;;;1.30;;
72301;SDS011;60235;52.234;5.186;2022-09-29T15:32:28;4.10;;;1.27;;
72301;SDS011;60235;52.234;5.186;2022-09-29T15:35:00;5.47;;;1.10;;
72301;SDS011;60235;52.234;5.186;2022-09-29T15:37:27;3.25;;;0.90;;
72301;SDS011;60235;52.234;5.186;2022-09-29T15:40:16;3.42;;;1.00;;
72301;SDS011;60235;52.234;5.186;2022-09-29T15:42:42;3.65;;;0.88;;
72301;SDS011;60235;52.234;5.186;2022-09-29T15:45:24;2.45;;;0.70;;
72301;SDS011;60235;52.234;5.186;2022-09-29T15:48:02;3.78;;;0.95;;
72301;SDS011;60235;52.234;5.186;2022-09-29T15:50:29;4.45;;;0.80;;
72301;SDS011;60235;52.234;5.186;2022-09-29T15:52:56;4.03;;;0.80;;
72301;SDS011;60235;52.234;5.186;2022-09-29T15:55:25;2.70;;;0.63;;
72301;SDS011;60235;52.234;5.186;2022-09-29T15:57:51;2.03;;;0.70;;
72301;SDS011;60235;52.234;5.186;2022-09-29T16:02:47;6.03;;;2.25;;
72301;SDS011;60235;52.234;5.186;2022-09-29T16:05:16;2.22;;;0.68;;
72301;SDS011;60235;52.234;5.186;2022-09-29T16:07:47;5.20;;;1.40;;
72301;SDS011;60235;52.234;5.186;2022-09-29T16:10:18;5.38;;;1.58;;
72301;SDS011;60235;52.234;5.186;2022-09-29T16:13:07;4.60;;;1.00;;
72301;SDS011;60235;52.234;5.186;2022-09-29T16:15:33;2.65;;;0.80;;
72301;SDS011;60235;52.234;5.186;2022-09-29T16:18:07;3.58;;;1.10;;
72301;SDS011;60235;52.234;5.186;2022-09-29T16:20:34;4.85;;;1.10;;
72301;SDS011;60235;52.234;5.186;2022-09-29T16:28:22;3.17;;;0.70;;
72301;SDS011;60235;52.234;5.186;2022-09-29T16:30:59;2.58;;;0.82;;
72301;SDS011;60235;52.234;5.186;2022-09-29T16:33:26;6.28;;;1.45;;
72301;SDS011;60235;52.234;5.186;2022-09-29T16:40:48;5.50;;;1.42;;
72301;SDS011;60235;52.234;5.186;2022-09-29T16:43:17;6.65;;;1.60;;
72301;SDS011;60235;52.234;5.186;2022-09-29T16:45:47;5.13;;;1.55;;
72301;SDS011;60235;52.234;5.186;2022-09-29T16:48:14;6.72;;;1.80;;
72301;SDS011;60235;52.234;5.186;2022-09-29T16:50:47;5.70;;;1.50;;
72301;SDS011;60235;52.234;5.186;2022-09-29T16:53:21;5.85;;;1.75;;
72301;SDS011;60235;52.234;5.186;2022-09-29T16:55:55;4.88;;;1.27;;
72301;SDS011;60235;52.234;5.186;2022-09-29T16:58:21;4.03;;;1.15;;
72301;SDS011;60235;52.234;5.186;2022-09-29T17:00:48;4.40;;;1.70;;
72301;SDS011;60235;52.234;5.186;2022-09-29T17:03:13;5.97;;;2.17;;
72301;SDS011;60235;52.234;5.186;2022-09-29T17:05:40;5.22;;;1.55;;
72301;SDS011;60235;52.234;5.186;2022-09-29T17:08:44;5.15;;;1.40;;
72301;SDS011;60235;52.234;5.186;2022-09-29T17:11:03;4.78;;;1.40;;
72301;SDS011;60235;52.234;5.186;2022-09-29T17:13:31;6.95;;;2.28;;
72301;SDS011;60235;52.234;5.186;2022-09-29T17:15:59;8.48;;;2.95;;
72301;SDS011;60235;52.234;5.186;2022-09-29T17:18:25;9.48;;;3.50;;
72301;SDS011;60235;52.234;5.186;2022-09-29T17:20:52;10.27;;;3.70;;
72301;SDS011;60235;52.234;5.186;2022-09-29T17:23:18;7.53;;;3.00;;
72301;SDS011;60235;52.234;5.186;2022-09-29T17:25:45;9.02;;;3.20;;
72301;SDS011;60235;52.234;5.186;2022-09-29T17:28:13;8.25;;;3.22;;
72301;SDS011;60235;52.234;5.186;2022-09-29T17:30:43;9.60;;;3.42;;
72301;SDS011;60235;52.234;5.186;2022-09-29T17:33:10;9.07;;;3.60;;
72301;SDS011;60235;52.234;5.186;2022-09-29T17:35:39;8.65;;;3.63;;
72301;SDS011;60235;52.234;5.186;2022-09-29T17:38:05;8.55;;;3.45;;
72301;SDS011;60235;52.234;5.186;2022-09-29T17:45:28;11.10;;;4.22;;
72301;SDS011;60235;52.234;5.186;2022-09-29T17:47:56;10.75;;;4.15;;
72301;SDS011;60235;52.234;5.186;2022-09-29T17:50:35;10.50;;;4.63;;
72301;SDS011;60235;52.234;5.186;2022-09-29T17:53:04;9.27;;;4.15;;
72301;SDS011;60235;52.234;5.186;2022-09-29T17:55:30;12.93;;;4.63;;
72301;SDS011;60235;52.234;5.186;2022-09-29T17:57:57;12.93;;;4.90;;
72301;SDS011;60235;52.234;5.186;2022-09-29T18:00:27;12.52;;;5.47;;
72301;SDS011;60235;52.234;5.186;2022-09-29T18:02:53;17.00;;;7.28;;